sensor_id;sensor_type;location;lat;lon;timestamp;temperature;humidity
30399;DHT22;17195;50.838;7.214;2023-03-16T00:00:42;1.20;99.90
30399;DHT22;17195;50.838;7.214;2023-03-16T00:03:08;1.10;99.90
30399;DHT22;17195;50.838;7.214;2023-03-16T00:05:34;1.10;99.90
30399;DHT22;17195;50.838;7.214;2023-03-16T00:08:00;1.10;99.90
30399;DHT22;17195;50.838;7.214;2023-03-16T00:10:25;1.10;99.90
30399;DHT22;17195;50.838;7.214;2023-03-16T00:12:55;1.20;99.90
30399;DHT22;17195;50.838;7.214;2023-03-16T00:15:21;1.20;99.90
30399;DHT22;17195;50.838;7.214;2023-03-16T00:17:47;1.40;99.90
30399;DHT22;17195;50.838;7.214;2023-03-16T00:20:17;1.40;99.90
30399;DHT22;17195;50.838;7.214;2023-03-16T00:22:43;1.60;99.90
30399;DHT22;17195;50.838;7.214;2023-03-16T00:25:11;1.70;99.90
30399;DHT22;17195;50.838;7.214;2023-03-16T00:27:37;1.80;99.90
30399;DHT22;17195;50.838;7.214;2023-03-16T00:30:03;1.80;99.90
30399;DHT22;17195;50.838;7.214;2023-03-16T00:32:35;1.80;99.90
30399;DHT22;17195;50.838;7.214;2023-03-16T00:35:02;1.90;99.90
30399;DHT22;17195;50.838;7.214;2023-03-16T00:37:28;1.90;99.90
30399;DHT22;17195;50.838;7.214;2023-03-16T00:39:54;1.90;99.90
30399;DHT22;17195;50.838;7.214;2023-03-16T00:42:25;2.00;99.90
30399;DHT22;17195;50.838;7.214;2023-03-16T00:44:58;2.00;99.90
30399;DHT22;17195;50.838;7.214;2023-03-16T00:47:29;2.10;99.90
30399;DHT22;17195;50.838;7.214;2023-03-16T00:49:56;2.10;99.90
30399;DHT22;17195;50.838;7.214;2023-03-16T00:52:22;2.20;99.90
30399;DHT22;17195;50.838;7.214;2023-03-16T00:54:48;2.10;99.90
30399;DHT22;17195;50.838;7.214;2023-03-16T00:57:16;2.20;99.90
30399;DHT22;17195;50.838;7.214;2023-03-16T00:59:43;2.20;99.90
30399;DHT22;17195;50.838;7.214;2023-03-16T01:02:10;2.30;99.90
30399;DHT22;17195;50.838;7.214;2023-03-16T01:04:37;2.30;99.90
30399;DHT22;17195;50.838;7.214;2023-03-16T01:07:05;2.30;99.90
30399;DHT22;17195;50.838;7.214;2023-03-16T01:09:31;2.30;99.90
30399;DHT22;17195;50.838;7.214;2023-03-16T01:12:03;2.40;99.90
30399;DHT22;17195;50.838;7.214;2023-03-16T01:14:31;2.40;99.90
30399;DHT22;17195;50.838;7.214;2023-03-16T01:16:57;2.40;99.90
30399;DHT22;17195;50.838;7.214;2023-03-16T01:19:22;2.50;99.90
30399;DHT22;17195;50.838;7.214;2023-03-16T01:21:48;2.50;99.90
30399;DHT22;17195;50.838;7.214;2023-03-16T01:24:13;2.50;99.90
30399;DHT22;17195;50.838;7.214;2023-03-16T01:26:39;2.60;99.90
30399;DHT22;17195;50.838;7.214;2023-03-16T01:29:05;2.60;99.90
30399;DHT22;17195;50.838;7.214;2023-03-16T01:31:31;2.60;99.90
30399;DHT22;17195;50.838;7.214;2023-03-16T01:33:57;2.60;99.90
30399;DHT22;17195;50.838;7.214;2023-03-16T01:36:22;2.60;99.90
30399;DHT22;17195;50.838;7.214;2023-03-16T01:38:48;2.70;99.90
30399;DHT22;17195;50.838;7.214;2023-03-16T01:41:14;2.70;99.90
30399;DHT22;17195;50.838;7.214;2023-03-16T01:43:41;2.80;99.90
30399;DHT22;17195;50.838;7.214;2023-03-16T01:51:23;2.80;99.90
30399;DHT22;17195;50.838;7.214;2023-03-16T01:53:54;2.80;99.90
30399;DHT22;17195;50.838;7.214;2023-03-16T01:56:26;2.80;99.90
30399;DHT22;17195;50.838;7.214;2023-03-16T01:58:55;2.80;99.90
30399;DHT22;17195;50.838;7.214;2023-03-16T02:01:27;2.70;99.90
30399;DHT22;17195;50.838;7.214;2023-03-16T02:04:06;2.80;99.90
30399;DHT22;17195;50.838;7.214;2023-03-16T02:06:34;2.70;99.90
30399;DHT22;17195;50.838;7.214;2023-03-16T02:09:01;2.70;99.90
30399;DHT22;17195;50.838;7.214;2023-03-16T02:11:27;2.70;99.90
30399;DHT22;17195;50.838;7.214;2023-03-16T02:13:54;2.70;99.90
30399;DHT22;17195;50.838;7.214;2023-03-16T02:16:22;2.70;99.90
30399;DHT22;17195;50.838;7.214;2023-03-16T02:18:48;2.60;99.90
30399;DHT22;17195;50.838;7.214;2023-03-16T02:23:44;2.60;99.90
30399;DHT22;17195;50.838;7.214;2023-03-16T02:31:40;2.60;99.90
30399;DHT22;17195;50.838;7.214;2023-03-16T02:34:06;2.60;99.90
30399;DHT22;17195;50.838;7.214;2023-03-16T02:36:32;2.60;99.90
30399;DHT22;17195;50.838;7.214;2023-03-16T02:38:58;2.70;99.90
30399;DHT22;17195;50.838;7.214;2023-03-16T02:41:24;2.70;99.90
30399;DHT22;17195;50.838;7.214;2023-03-16T02:43:54;2.70;99.90
30399;DHT22;17195;50.838;7.214;2023-03-16T02:46:24;2.60;99.90
30399;DHT22;17195;50.838;7.214;2023-03-16T02:49:11;2.60;99.90
30399;DHT22;17195;50.838;7.214;2023-03-16T02:51:41;2.60;99.90
30399;DHT22;17195;50.838;7.214;2023-03-16T02:54:07;2.60;99.90
30399;DHT22;17195;50.838;7.214;2023-03-16T02:56:32;2.70;99.90
30399;DHT22;17195;50.838;7.214;2023-03-16T02:58:58;2.60;99.90
30399;DHT22;17195;50.838;7.214;2023-03-16T03:01:23;2.60;99.90
30399;DHT22;17195;50.838;7.214;2023-03-16T03:03:49;2.60;99.90
30399;DHT22;17195;50.838;7.214;2023-03-16T03:06:14;2.60;99.90
30399;DHT22;17195;50.838;7.214;2023-03-16T03:08:40;2.60;99.90
30399;DHT22;17195;50.838;7.214;2023-03-16T03:11:07;2.70;99.90
30399;DHT22;17195;50.838;7.214;2023-03-16T03:13:33;2.70;99.90
30399;DHT22;17195;50.838;7.214;2023-03-16T03:15:58;2.70;99.90
30399;DHT22;17195;50.838;7.214;2023-03-16T03:18:24;2.70;99.90
30399;DHT22;17195;50.838;7.214;2023-03-16T03:20:50;2.70;99.90
30399;DHT22;17195;50.838;7.214;2023-03-16T03:23:15;2.80;99.90
30399;DHT22;17195;50.838;7.214;2023-03-16T03:25:41;2.70;99.90
30399;DHT22;17195;50.838;7.214;2023-03-16T03:28:07;2.80;99.90
30399;DHT22;17195;50.838;7.214;2023-03-16T03:30:33;2.70;99.90
30399;DHT22;17195;50.838;7.214;2023-03-16T03:32:59;2.70;99.90
30399;DHT22;17195;50.838;7.214;2023-03-16T03:35:26;2.70;99.90
30399;DHT22;17195;50.838;7.214;2023-03-16T03:37:52;2.70;99.90
30399;DHT22;17195;50.838;7.214;2023-03-16T03:40:19;2.70;99.90
30399;DHT22;17195;50.838;7.214;2023-03-16T03:42:45;2.70;99.90
30399;DHT22;17195;50.838;7.214;2023-03-16T03:45:12;2.70;99.90
30399;DHT22;17195;50.838;7.214;2023-03-16T03:47:38;2.70;99.90
30399;DHT22;17195;50.838;7.214;2023-03-16T03:50:05;2.70;99.90
30399;DHT22;17195;50.838;7.214;2023-03-16T03:52:30;2.70;99.90
30399;DHT22;17195;50.838;7.214;2023-03-16T03:54:56;2.80;99.90
30399;DHT22;17195;50.838;7.214;2023-03-16T03:57:21;2.70;99.90
30399;DHT22;17195;50.838;7.214;2023-03-16T03:59:47;2.80;99.90
30399;DHT22;17195;50.838;7.214;2023-03-16T04:02:13;2.80;99.90
30399;DHT22;17195;50.838;7.214;2023-03-16T04:04:40;2.70;99.90
30399;DHT22;17195;50.838;7.214;2023-03-16T04:07:06;2.80;99.90
30399;DHT22;17195;50.838;7.214;2023-03-16T04:09:32;2.80;99.90
30399;DHT22;17195;50.838;7.214;2023-03-16T04:11:59;2.90;99.90
30399;DHT22;17195;50.838;7.214;2023-03-16T04:14:24;2.80;99.90
30399;DHT22;17195;50.838;7.214;2023-03-16T04:16:50;2.80;99.90
30399;DHT22;17195;50.838;7.214;2023-03-16T04:19:16;2.80;99.90
30399;DHT22;17195;50.838;7.214;2023-03-16T04:21:41;2.80;99.90
30399;DHT22;17195;50.838;7.214;2023-03-16T04:24:07;2.80;99.90
30399;DHT22;17195;50.838;7.214;2023-03-16T04:26:32;2.80;99.90
30399;DHT22;17195;50.838;7.214;2023-03-16T04:28:59;2.80;99.90
30399;DHT22;17195;50.838;7.214;2023-03-16T04:31:24;2.80;99.90
30399;DHT22;17195;50.838;7.214;2023-03-16T04:33:50;2.80;99.90
30399;DHT22;17195;50.838;7.214;2023-03-16T04:36:19;2.90;99.90
30399;DHT22;17195;50.838;7.214;2023-03-16T04:38:48;2.90;99.90
30399;DHT22;17195;50.838;7.214;2023-03-16T04:41:14;2.90;99.90
30399;DHT22;17195;50.838;7.214;2023-03-16T04:43:40;2.90;99.90
30399;DHT22;17195;50.838;7.214;2023-03-16T04:46:05;3.00;99.90
30399;DHT22;17195;50.838;7.214;2023-03-16T04:48:31;3.00;99.90
30399;DHT22;17195;50.838;7.214;2023-03-16T04:50:57;3.00;99.90
30399;DHT22;17195;50.838;7.214;2023-03-16T04:53:23;3.00;99.90
30399;DHT22;17195;50.838;7.214;2023-03-16T04:55:49;2.90;99.90
30399;DHT22;17195;50.838;7.214;2023-03-16T04:58:15;3.00;99.90
30399;DHT22;17195;50.838;7.214;2023-03-16T05:00:41;3.00;99.90
30399;DHT22;17195;50.838;7.214;2023-03-16T05:03:07;3.10;99.90
30399;DHT22;17195;50.838;7.214;2023-03-16T05:05:36;3.10;99.90
30399;DHT22;17195;50.838;7.214;2023-03-16T05:08:01;3.10;99.90
30399;DHT22;17195;50.838;7.214;2023-03-16T05:10:30;3.10;99.90
30399;DHT22;17195;50.838;7.214;2023-03-16T05:12:56;3.10;99.90
30399;DHT22;17195;50.838;7.214;2023-03-16T05:15:22;3.10;99.90
30399;DHT22;17195;50.838;7.214;2023-03-16T05:17:47;3.10;99.90
30399;DHT22;17195;50.838;7.214;2023-03-16T05:20:14;3.20;99.90
30399;DHT22;17195;50.838;7.214;2023-03-16T05:22:41;3.20;99.90
30399;DHT22;17195;50.838;7.214;2023-03-16T05:25:07;3.20;99.90
30399;DHT22;17195;50.838;7.214;2023-03-16T05:27:33;3.20;99.90
30399;DHT22;17195;50.838;7.214;2023-03-16T05:29:59;3.20;99.90
30399;DHT22;17195;50.838;7.214;2023-03-16T05:32:26;3.20;99.90
30399;DHT22;17195;50.838;7.214;2023-03-16T05:34:51;3.30;99.90
30399;DHT22;17195;50.838;7.214;2023-03-16T05:37:18;3.30;99.90
30399;DHT22;17195;50.838;7.214;2023-03-16T05:39:43;3.30;99.90
30399;DHT22;17195;50.838;7.214;2023-03-16T05:42:09;3.30;99.90
30399;DHT22;17195;50.838;7.214;2023-03-16T05:44:35;3.40;99.90
30399;DHT22;17195;50.838;7.214;2023-03-16T05:47:00;3.40;99.90
30399;DHT22;17195;50.838;7.214;2023-03-16T05:49:26;3.40;99.90
30399;DHT22;17195;50.838;7.214;2023-03-16T05:51:51;3.40;99.90
30399;DHT22;17195;50.838;7.214;2023-03-16T05:54:17;3.40;99.90
30399;DHT22;17195;50.838;7.214;2023-03-16T05:56:43;3.40;99.90
30399;DHT22;17195;50.838;7.214;2023-03-16T05:59:08;3.50;99.90
30399;DHT22;17195;50.838;7.214;2023-03-16T06:01:34;3.50;99.90
30399;DHT22;17195;50.838;7.214;2023-03-16T06:03:59;3.50;99.90
30399;DHT22;17195;50.838;7.214;2023-03-16T06:06:27;3.50;99.90
30399;DHT22;17195;50.838;7.214;2023-03-16T06:08:52;3.50;99.90
30399;DHT22;17195;50.838;7.214;2023-03-16T06:11:18;3.50;99.90
30399;DHT22;17195;50.838;7.214;2023-03-16T06:13:43;3.60;99.90
30399;DHT22;17195;50.838;7.214;2023-03-16T06:16:09;3.60;99.90
30399;DHT22;17195;50.838;7.214;2023-03-16T06:18:38;3.50;99.90
30399;DHT22;17195;50.838;7.214;2023-03-16T06:21:04;3.60;99.90
30399;DHT22;17195;50.838;7.214;2023-03-16T06:23:29;3.60;99.90
30399;DHT22;17195;50.838;7.214;2023-03-16T06:25:55;3.60;99.90
30399;DHT22;17195;50.838;7.214;2023-03-16T06:28:21;3.60;99.90
30399;DHT22;17195;50.838;7.214;2023-03-16T06:30:47;3.60;99.90
30399;DHT22;17195;50.838;7.214;2023-03-16T06:33:13;3.70;99.90
30399;DHT22;17195;50.838;7.214;2023-03-16T06:35:38;3.80;99.90
30399;DHT22;17195;50.838;7.214;2023-03-16T06:38:04;3.80;99.90
30399;DHT22;17195;50.838;7.214;2023-03-16T06:40:29;3.80;99.90
30399;DHT22;17195;50.838;7.214;2023-03-16T06:42:55;3.90;99.90
30399;DHT22;17195;50.838;7.214;2023-03-16T06:45:21;4.00;99.90
30399;DHT22;17195;50.838;7.214;2023-03-16T06:47:47;4.10;99.90
30399;DHT22;17195;50.838;7.214;2023-03-16T06:50:13;4.20;99.90
30399;DHT22;17195;50.838;7.214;2023-03-16T06:52:38;4.20;99.90
30399;DHT22;17195;50.838;7.214;2023-03-16T06:55:04;4.30;99.90
30399;DHT22;17195;50.838;7.214;2023-03-16T06:57:30;4.30;99.90
30399;DHT22;17195;50.838;7.214;2023-03-16T06:59:56;4.40;99.90
30399;DHT22;17195;50.838;7.214;2023-03-16T07:02:21;4.50;99.90
30399;DHT22;17195;50.838;7.214;2023-03-16T07:04:48;4.60;99.90
30399;DHT22;17195;50.838;7.214;2023-03-16T07:07:14;4.70;99.90
30399;DHT22;17195;50.838;7.214;2023-03-16T07:09:40;4.80;99.90
30399;DHT22;17195;50.838;7.214;2023-03-16T07:12:06;4.80;99.90
30399;DHT22;17195;50.838;7.214;2023-03-16T07:14:32;4.90;99.90
30399;DHT22;17195;50.838;7.214;2023-03-16T07:16:57;4.90;99.90
30399;DHT22;17195;50.838;7.214;2023-03-16T07:19:23;5.00;99.90
30399;DHT22;17195;50.838;7.214;2023-03-16T07:21:48;5.10;99.90
30399;DHT22;17195;50.838;7.214;2023-03-16T07:24:14;5.10;99.90
30399;DHT22;17195;50.838;7.214;2023-03-16T07:26:40;5.20;99.90
30399;DHT22;17195;50.838;7.214;2023-03-16T07:29:06;5.30;99.90
30399;DHT22;17195;50.838;7.214;2023-03-16T07:31:33;5.30;99.90
30399;DHT22;17195;50.838;7.214;2023-03-16T07:34:00;5.40;99.90
30399;DHT22;17195;50.838;7.214;2023-03-16T07:36:26;5.50;99.90
30399;DHT22;17195;50.838;7.214;2023-03-16T07:38:52;5.60;99.90
30399;DHT22;17195;50.838;7.214;2023-03-16T07:41:18;5.70;99.90
30399;DHT22;17195;50.838;7.214;2023-03-16T07:43:43;5.80;99.90
30399;DHT22;17195;50.838;7.214;2023-03-16T07:46:12;5.90;99.90
30399;DHT22;17195;50.838;7.214;2023-03-16T07:48:42;6.00;99.90
30399;DHT22;17195;50.838;7.214;2023-03-16T07:51:09;6.10;99.90
30399;DHT22;17195;50.838;7.214;2023-03-16T07:53:35;6.20;99.90
30399;DHT22;17195;50.838;7.214;2023-03-16T07:56:00;6.30;99.90
30399;DHT22;17195;50.838;7.214;2023-03-16T07:58:26;6.40;99.90
30399;DHT22;17195;50.838;7.214;2023-03-16T08:00:55;6.40;99.90
30399;DHT22;17195;50.838;7.214;2023-03-16T08:03:21;6.50;99.90
30399;DHT22;17195;50.838;7.214;2023-03-16T08:05:46;6.70;99.90
30399;DHT22;17195;50.838;7.214;2023-03-16T08:08:12;6.80;99.90
30399;DHT22;17195;50.838;7.214;2023-03-16T08:10:40;6.90;99.90
30399;DHT22;17195;50.838;7.214;2023-03-16T08:13:06;7.00;99.90
30399;DHT22;17195;50.838;7.214;2023-03-16T08:15:31;7.10;99.90
30399;DHT22;17195;50.838;7.214;2023-03-16T08:18:00;7.20;99.90
30399;DHT22;17195;50.838;7.214;2023-03-16T08:20:31;7.30;99.90
30399;DHT22;17195;50.838;7.214;2023-03-16T08:22:57;7.30;99.90
30399;DHT22;17195;50.838;7.214;2023-03-16T08:25:23;7.30;99.90
30399;DHT22;17195;50.838;7.214;2023-03-16T08:27:49;7.30;99.90
30399;DHT22;17195;50.838;7.214;2023-03-16T08:30:15;7.40;99.90
30399;DHT22;17195;50.838;7.214;2023-03-16T08:32:41;7.50;99.90
30399;DHT22;17195;50.838;7.214;2023-03-16T08:35:09;7.60;99.90
30399;DHT22;17195;50.838;7.214;2023-03-16T08:37:34;7.60;99.90
30399;DHT22;17195;50.838;7.214;2023-03-16T08:40:00;7.80;99.90
30399;DHT22;17195;50.838;7.214;2023-03-16T08:42:26;7.90;99.90
30399;DHT22;17195;50.838;7.214;2023-03-16T08:44:53;8.10;99.90
30399;DHT22;17195;50.838;7.214;2023-03-16T08:47:20;8.10;99.90
30399;DHT22;17195;50.838;7.214;2023-03-16T08:49:46;8.10;99.90
30399;DHT22;17195;50.838;7.214;2023-03-16T08:52:12;8.20;99.90
30399;DHT22;17195;50.838;7.214;2023-03-16T08:54:38;8.30;99.90
30399;DHT22;17195;50.838;7.214;2023-03-16T08:57:04;8.40;99.90
30399;DHT22;17195;50.838;7.214;2023-03-16T08:59:30;8.50;99.90
30399;DHT22;17195;50.838;7.214;2023-03-16T09:01:55;8.50;99.90
30399;DHT22;17195;50.838;7.214;2023-03-16T09:04:21;8.60;99.90
30399;DHT22;17195;50.838;7.214;2023-03-16T09:06:48;8.70;99.90
30399;DHT22;17195;50.838;7.214;2023-03-16T09:09:16;8.80;99.90
30399;DHT22;17195;50.838;7.214;2023-03-16T09:11:42;8.80;99.90
30399;DHT22;17195;50.838;7.214;2023-03-16T09:14:08;8.90;99.90
30399;DHT22;17195;50.838;7.214;2023-03-16T09:16:36;9.00;99.90
30399;DHT22;17195;50.838;7.214;2023-03-16T09:19:03;9.20;99.90
30399;DHT22;17195;50.838;7.214;2023-03-16T09:21:28;9.30;99.90
30399;DHT22;17195;50.838;7.214;2023-03-16T09:23:55;9.30;99.90
30399;DHT22;17195;50.838;7.214;2023-03-16T09:26:21;9.50;99.90
30399;DHT22;17195;50.838;7.214;2023-03-16T09:28:47;9.60;99.90
30399;DHT22;17195;50.838;7.214;2023-03-16T09:31:16;9.70;99.90
30399;DHT22;17195;50.838;7.214;2023-03-16T09:33:43;9.70;99.90
30399;DHT22;17195;50.838;7.214;2023-03-16T09:36:08;9.70;99.90
30399;DHT22;17195;50.838;7.214;2023-03-16T09:38:36;9.70;99.90
30399;DHT22;17195;50.838;7.214;2023-03-16T09:41:14;9.90;99.90
30399;DHT22;17195;50.838;7.214;2023-03-16T09:46:41;10.00;99.90
30399;DHT22;17195;50.838;7.214;2023-03-16T09:49:10;10.20;99.90
30399;DHT22;17195;50.838;7.214;2023-03-16T09:54:33;10.40;99.90
30399;DHT22;17195;50.838;7.214;2023-03-16T09:57:04;10.40;99.90
30399;DHT22;17195;50.838;7.214;2023-03-16T09:59:39;10.50;99.90
30399;DHT22;17195;50.838;7.214;2023-03-16T10:05:13;10.90;99.90
30399;DHT22;17195;50.838;7.214;2023-03-16T10:08:19;11.00;99.90
30399;DHT22;17195;50.838;7.214;2023-03-16T10:11:07;11.30;99.90
30399;DHT22;17195;50.838;7.214;2023-03-16T10:13:50;11.50;99.90
30399;DHT22;17195;50.838;7.214;2023-03-16T10:16:19;11.50;99.90
30399;DHT22;17195;50.838;7.214;2023-03-16T10:18:49;11.50;99.90
30399;DHT22;17195;50.838;7.214;2023-03-16T10:21:18;11.50;99.90
30399;DHT22;17195;50.838;7.214;2023-03-16T10:23:47;11.40;99.90
30399;DHT22;17195;50.838;7.214;2023-03-16T10:26:23;11.40;99.90
30399;DHT22;17195;50.838;7.214;2023-03-16T10:28:50;11.30;99.90
30399;DHT22;17195;50.838;7.214;2023-03-16T10:31:20;11.30;99.90
30399;DHT22;17195;50.838;7.214;2023-03-16T10:33:47;11.20;99.90
30399;DHT22;17195;50.838;7.214;2023-03-16T10:36:26;11.20;99.90
30399;DHT22;17195;50.838;7.214;2023-03-16T10:38:57;11.30;99.90
30399;DHT22;17195;50.838;7.214;2023-03-16T10:43:51;11.50;99.90
30399;DHT22;17195;50.838;7.214;2023-03-16T10:46:18;11.60;99.90
30399;DHT22;17195;50.838;7.214;2023-03-16T10:48:57;11.70;99.90
30399;DHT22;17195;50.838;7.214;2023-03-16T10:51:32;11.70;99.90
30399;DHT22;17195;50.838;7.214;2023-03-16T10:54:17;11.80;99.90
30399;DHT22;17195;50.838;7.214;2023-03-16T10:56:46;12.00;99.90
30399;DHT22;17195;50.838;7.214;2023-03-16T10:59:32;12.10;99.90
30399;DHT22;17195;50.838;7.214;2023-03-16T11:02:01;12.30;99.90
30399;DHT22;17195;50.838;7.214;2023-03-16T11:04:31;12.50;99.90
30399;DHT22;17195;50.838;7.214;2023-03-16T11:06:58;12.60;99.90
30399;DHT22;17195;50.838;7.214;2023-03-16T11:09:42;12.80;99.90
30399;DHT22;17195;50.838;7.214;2023-03-16T11:14:48;13.10;99.90
30399;DHT22;17195;50.838;7.214;2023-03-16T11:17:20;13.30;99.90
30399;DHT22;17195;50.838;7.214;2023-03-16T11:19:52;13.40;99.90
30399;DHT22;17195;50.838;7.214;2023-03-16T11:22:23;13.40;99.90
30399;DHT22;17195;50.838;7.214;2023-03-16T11:33:11;13.10;99.90
30399;DHT22;17195;50.838;7.214;2023-03-16T11:38:16;12.90;99.90
30399;DHT22;17195;50.838;7.214;2023-03-16T11:41:03;12.90;99.90
30399;DHT22;17195;50.838;7.214;2023-03-16T11:46:13;12.80;99.90
30399;DHT22;17195;50.838;7.214;2023-03-16T11:56:57;13.30;99.80
30399;DHT22;17195;50.838;7.214;2023-03-16T11:59:59;13.50;99.70
30399;DHT22;17195;50.838;7.214;2023-03-16T12:02:48;13.60;99.30
30399;DHT22;17195;50.838;7.214;2023-03-16T12:11:04;13.50;97.80
30399;DHT22;17195;50.838;7.214;2023-03-16T12:14:02;13.30;97.90
30399;DHT22;17195;50.838;7.214;2023-03-16T12:16:42;13.20;98.00
30399;DHT22;17195;50.838;7.214;2023-03-16T12:19:15;13.20;97.60
30399;DHT22;17195;50.838;7.214;2023-03-16T12:21:44;13.30;97.70
30399;DHT22;17195;50.838;7.214;2023-03-16T12:24:19;13.30;98.60
30399;DHT22;17195;50.838;7.214;2023-03-16T12:26:46;13.50;97.50
30399;DHT22;17195;50.838;7.214;2023-03-16T12:32:07;14.20;95.70
30399;DHT22;17195;50.838;7.214;2023-03-16T12:40:07;14.80;93.80
30399;DHT22;17195;50.838;7.214;2023-03-16T12:45:51;14.80;94.20
30399;DHT22;17195;50.838;7.214;2023-03-16T12:48:29;15.00;93.50
30399;DHT22;17195;50.838;7.214;2023-03-16T12:50:59;15.00;93.30
30399;DHT22;17195;50.838;7.214;2023-03-16T12:56:11;14.80;92.60
30399;DHT22;17195;50.838;7.214;2023-03-16T12:58:43;14.70;92.40
30399;DHT22;17195;50.838;7.214;2023-03-16T13:01:10;14.40;92.10
30399;DHT22;17195;50.838;7.214;2023-03-16T13:03:38;14.40;92.30
30399;DHT22;17195;50.838;7.214;2023-03-16T13:06:04;14.30;93.00
30399;DHT22;17195;50.838;7.214;2023-03-16T13:08:41;14.30;93.00
30399;DHT22;17195;50.838;7.214;2023-03-16T13:11:10;14.30;92.70
30399;DHT22;17195;50.838;7.214;2023-03-16T13:14:05;14.30;93.20
30399;DHT22;17195;50.838;7.214;2023-03-16T13:16:37;14.50;93.00
30399;DHT22;17195;50.838;7.214;2023-03-16T13:19:26;14.50;93.20
30399;DHT22;17195;50.838;7.214;2023-03-16T13:22:26;14.50;92.40
30399;DHT22;17195;50.838;7.214;2023-03-16T13:25:14;14.60;92.60
30399;DHT22;17195;50.838;7.214;2023-03-16T13:27:43;14.70;92.70
30399;DHT22;17195;50.838;7.214;2023-03-16T13:32:46;14.80;92.10
30399;DHT22;17195;50.838;7.214;2023-03-16T13:35:14;14.60;91.80
30399;DHT22;17195;50.838;7.214;2023-03-16T13:37:42;14.40;92.00
30399;DHT22;17195;50.838;7.214;2023-03-16T13:40:19;14.50;92.00
30399;DHT22;17195;50.838;7.214;2023-03-16T13:42:48;14.50;91.70
30399;DHT22;17195;50.838;7.214;2023-03-16T13:45:20;14.40;91.70
30399;DHT22;17195;50.838;7.214;2023-03-16T13:47:48;14.30;91.90
30399;DHT22;17195;50.838;7.214;2023-03-16T13:50:14;14.30;92.00
30399;DHT22;17195;50.838;7.214;2023-03-16T13:52:41;14.30;91.90
30399;DHT22;17195;50.838;7.214;2023-03-16T13:55:16;14.50;92.20
30399;DHT22;17195;50.838;7.214;2023-03-16T13:57:43;14.60;92.10
30399;DHT22;17195;50.838;7.214;2023-03-16T14:00:18;14.80;91.70
30399;DHT22;17195;50.838;7.214;2023-03-16T14:02:45;14.80;91.20
30399;DHT22;17195;50.838;7.214;2023-03-16T14:05:17;14.80;91.20
30399;DHT22;17195;50.838;7.214;2023-03-16T14:07:48;14.70;91.20
30399;DHT22;17195;50.838;7.214;2023-03-16T14:10:16;14.60;91.00
30399;DHT22;17195;50.838;7.214;2023-03-16T14:12:56;14.60;91.10
30399;DHT22;17195;50.838;7.214;2023-03-16T14:15:25;14.60;91.00
30399;DHT22;17195;50.838;7.214;2023-03-16T14:17:52;14.60;91.40
30399;DHT22;17195;50.838;7.214;2023-03-16T14:20:27;14.70;91.20
30399;DHT22;17195;50.838;7.214;2023-03-16T14:22:54;14.90;90.70
30399;DHT22;17195;50.838;7.214;2023-03-16T14:25:22;15.00;90.00
30399;DHT22;17195;50.838;7.214;2023-03-16T14:28:04;15.20;90.00
30399;DHT22;17195;50.838;7.214;2023-03-16T14:30:30;15.40;90.00
30399;DHT22;17195;50.838;7.214;2023-03-16T14:33:04;15.50;89.60
30399;DHT22;17195;50.838;7.214;2023-03-16T14:35:39;15.60;89.10
30399;DHT22;17195;50.838;7.214;2023-03-16T14:38:39;15.70;87.90
30399;DHT22;17195;50.838;7.214;2023-03-16T14:41:20;15.90;87.60
30399;DHT22;17195;50.838;7.214;2023-03-16T14:44:00;16.00;86.10
30399;DHT22;17195;50.838;7.214;2023-03-16T14:46:36;16.20;85.80
30399;DHT22;17195;50.838;7.214;2023-03-16T14:49:16;16.40;85.70
30399;DHT22;17195;50.838;7.214;2023-03-16T14:51:45;16.60;85.60
30399;DHT22;17195;50.838;7.214;2023-03-16T14:54:12;16.90;85.30
30399;DHT22;17195;50.838;7.214;2023-03-16T14:56:38;16.80;83.90
30399;DHT22;17195;50.838;7.214;2023-03-16T14:59:04;16.90;82.80
30399;DHT22;17195;50.838;7.214;2023-03-16T15:01:29;16.80;83.10
30399;DHT22;17195;50.838;7.214;2023-03-16T15:03:55;16.80;82.70
30399;DHT22;17195;50.838;7.214;2023-03-16T15:06:21;16.80;82.90
30399;DHT22;17195;50.838;7.214;2023-03-16T15:08:47;16.70;82.90
30399;DHT22;17195;50.838;7.214;2023-03-16T15:11:15;16.90;81.90
30399;DHT22;17195;50.838;7.214;2023-03-16T15:13:49;17.00;81.40
30399;DHT22;17195;50.838;7.214;2023-03-16T15:16:14;16.80;81.10
30399;DHT22;17195;50.838;7.214;2023-03-16T15:18:41;16.70;80.60
30399;DHT22;17195;50.838;7.214;2023-03-16T15:21:16;16.60;81.30
30399;DHT22;17195;50.838;7.214;2023-03-16T15:23:43;16.60;81.10
30399;DHT22;17195;50.838;7.214;2023-03-16T15:26:14;16.80;81.40
30399;DHT22;17195;50.838;7.214;2023-03-16T15:28:40;17.10;80.00
30399;DHT22;17195;50.838;7.214;2023-03-16T15:31:05;17.30;79.70
30399;DHT22;17195;50.838;7.214;2023-03-16T15:33:32;17.50;78.80
30399;DHT22;17195;50.838;7.214;2023-03-16T15:35:59;17.60;78.70
30399;DHT22;17195;50.838;7.214;2023-03-16T15:38:29;17.70;78.80
30399;DHT22;17195;50.838;7.214;2023-03-16T15:40:56;18.00;77.30
30399;DHT22;17195;50.838;7.214;2023-03-16T15:43:23;17.90;77.30
30399;DHT22;17195;50.838;7.214;2023-03-16T15:45:50;17.80;77.50
30399;DHT22;17195;50.838;7.214;2023-03-16T15:48:19;17.90;77.70
30399;DHT22;17195;50.838;7.214;2023-03-16T15:50:56;18.30;77.20
30399;DHT22;17195;50.838;7.214;2023-03-16T15:53:32;18.90;75.90
30399;DHT22;17195;50.838;7.214;2023-03-16T15:56:02;20.20;73.30
30399;DHT22;17195;50.838;7.214;2023-03-16T15:58:30;21.00;71.00
30399;DHT22;17195;50.838;7.214;2023-03-16T16:00:58;21.30;69.60
30399;DHT22;17195;50.838;7.214;2023-03-16T16:03:25;20.80;68.90
30399;DHT22;17195;50.838;7.214;2023-03-16T16:05:52;20.00;69.60
30399;DHT22;17195;50.838;7.214;2023-03-16T16:08:18;18.70;71.80
30399;DHT22;17195;50.838;7.214;2023-03-16T16:10:44;17.90;74.00
30399;DHT22;17195;50.838;7.214;2023-03-16T16:13:40;17.30;75.60
30399;DHT22;17195;50.838;7.214;2023-03-16T16:16:09;16.60;76.40
30399;DHT22;17195;50.838;7.214;2023-03-16T16:18:35;16.20;77.70
30399;DHT22;17195;50.838;7.214;2023-03-16T16:21:02;15.80;78.80
30399;DHT22;17195;50.838;7.214;2023-03-16T16:23:29;15.40;79.80
30399;DHT22;17195;50.838;7.214;2023-03-16T16:26:00;15.20;80.90
30399;DHT22;17195;50.838;7.214;2023-03-16T16:28:29;14.90;81.70
30399;DHT22;17195;50.838;7.214;2023-03-16T16:30:56;14.80;82.40
30399;DHT22;17195;50.838;7.214;2023-03-16T16:33:26;14.70;82.70
30399;DHT22;17195;50.838;7.214;2023-03-16T16:35:53;14.40;83.40
30399;DHT22;17195;50.838;7.214;2023-03-16T16:38:20;14.30;84.00
30399;DHT22;17195;50.838;7.214;2023-03-16T16:40:47;14.10;84.70
30399;DHT22;17195;50.838;7.214;2023-03-16T16:46:18;14.00;85.50
30399;DHT22;17195;50.838;7.214;2023-03-16T16:48:49;13.90;85.70
30399;DHT22;17195;50.838;7.214;2023-03-16T16:51:19;13.70;85.70
30399;DHT22;17195;50.838;7.214;2023-03-16T16:53:46;13.60;86.60
30399;DHT22;17195;50.838;7.214;2023-03-16T16:56:16;13.40;87.30
30399;DHT22;17195;50.838;7.214;2023-03-16T16:58:43;13.30;87.70
30399;DHT22;17195;50.838;7.214;2023-03-16T17:01:20;13.10;88.10
30399;DHT22;17195;50.838;7.214;2023-03-16T17:03:47;13.00;88.90